sensor_id;sensor_type;location;lat;lon;timestamp;P1;durP1;ratioP1;P2;durP2;ratioP2
69126;SDS011;56688;50.234;19.292;2023-04-25T00:02:11;6.70;;;4.00;;
69126;SDS011;56688;50.234;19.292;2023-04-25T00:04:39;4.70;;;3.90;;
69126;SDS011;56688;50.234;19.292;2023-04-25T00:07:06;5.00;;;3.40;;
69126;SDS011;56688;50.234;19.292;2023-04-25T00:09:33;5.70;;;3.80;;
69126;SDS011;56688;50.234;19.292;2023-04-25T00:12:00;8.70;;;3.90;;
69126;SDS011;56688;50.234;19.292;2023-04-25T00:14:28;5.40;;;4.00;;
69126;SDS011;56688;50.234;19.292;2023-04-25T00:16:55;6.60;;;3.60;;
69126;SDS011;56688;50.234;19.292;2023-04-25T00:19:22;5.20;;;3.60;;
69126;SDS011;56688;50.234;19.292;2023-04-25T00:21:49;6.90;;;3.60;;
69126;SDS011;56688;50.234;19.292;2023-04-25T00:24:16;6.00;;;3.60;;
69126;SDS011;56688;50.234;19.292;2023-04-25T00:26:43;8.30;;;4.00;;
69126;SDS011;56688;50.234;19.292;2023-04-25T00:29:10;6.40;;;4.40;;
69126;SDS011;56688;50.234;19.292;2023-04-25T00:31:37;7.70;;;4.40;;
69126;SDS011;56688;50.234;19.292;2023-04-25T00:34:05;7.20;;;4.50;;
69126;SDS011;56688;50.234;19.292;2023-04-25T00:36:34;6.30;;;3.90;;
69126;SDS011;56688;50.234;19.292;2023-04-25T00:39:01;6.60;;;4.30;;
69126;SDS011;56688;50.234;19.292;2023-04-25T00:41:29;7.20;;;4.70;;
69126;SDS011;56688;50.234;19.292;2023-04-25T00:43:56;6.10;;;4.30;;
69126;SDS011;56688;50.234;19.292;2023-04-25T00:46:25;10.50;;;4.20;;
69126;SDS011;56688;50.234;19.292;2023-04-25T00:48:53;7.90;;;4.60;;
69126;SDS011;56688;50.234;19.292;2023-04-25T00:51:20;5.60;;;4.30;;
69126;SDS011;56688;50.234;19.292;2023-04-25T00:53:48;7.80;;;6.10;;
69126;SDS011;56688;50.234;19.292;2023-04-25T00:56:17;6.70;;;5.20;;
69126;SDS011;56688;50.234;19.292;2023-04-25T00:58:44;7.40;;;5.10;;
69126;SDS011;56688;50.234;19.292;2023-04-25T01:01:12;10.20;;;5.50;;
69126;SDS011;56688;50.234;19.292;2023-04-25T01:03:39;8.30;;;6.50;;
69126;SDS011;56688;50.234;19.292;2023-04-25T01:06:08;8.90;;;6.40;;
69126;SDS011;56688;50.234;19.292;2023-04-25T01:08:37;8.50;;;7.10;;
69126;SDS011;56688;50.234;19.292;2023-04-25T01:11:05;8.30;;;6.50;;
69126;SDS011;56688;50.234;19.292;2023-04-25T01:13:32;8.10;;;6.30;;
69126;SDS011;56688;50.234;19.292;2023-04-25T01:16:00;8.00;;;6.70;;
69126;SDS011;56688;50.234;19.292;2023-04-25T01:18:28;8.60;;;6.70;;
69126;SDS011;56688;50.234;19.292;2023-04-25T01:20:55;9.80;;;7.10;;
69126;SDS011;56688;50.234;19.292;2023-04-25T01:23:25;10.90;;;6.80;;
69126;SDS011;56688;50.234;19.292;2023-04-25T01:25:52;11.20;;;7.80;;
69126;SDS011;56688;50.234;19.292;2023-04-25T01:28:19;11.00;;;7.40;;
69126;SDS011;56688;50.234;19.292;2023-04-25T01:30:46;11.10;;;8.60;;
69126;SDS011;56688;50.234;19.292;2023-04-25T01:33:14;16.20;;;9.50;;
69126;SDS011;56688;50.234;19.292;2023-04-25T01:35:42;12.40;;;9.00;;
69126;SDS011;56688;50.234;19.292;2023-04-25T01:38:09;13.10;;;7.70;;
69126;SDS011;56688;50.234;19.292;2023-04-25T01:40:37;11.00;;;8.70;;
69126;SDS011;56688;50.234;19.292;2023-04-25T01:43:05;12.80;;;8.60;;
69126;SDS011;56688;50.234;19.292;2023-04-25T01:45:34;12.00;;;8.40;;
69126;SDS011;56688;50.234;19.292;2023-04-25T01:48:03;15.20;;;8.60;;
69126;SDS011;56688;50.234;19.292;2023-04-25T01:50:30;9.80;;;7.60;;
69126;SDS011;56688;50.234;19.292;2023-04-25T01:52:57;9.80;;;7.00;;
69126;SDS011;56688;50.234;19.292;2023-04-25T01:55:24;11.50;;;7.30;;
69126;SDS011;56688;50.234;19.292;2023-04-25T01:57:58;10.60;;;7.80;;
69126;SDS011;56688;50.234;19.292;2023-04-25T02:00:43;8.90;;;7.00;;
69126;SDS011;56688;50.234;19.292;2023-04-25T02:03:11;10.20;;;7.00;;
69126;SDS011;56688;50.234;19.292;2023-04-25T02:05:38;9.40;;;6.30;;
69126;SDS011;56688;50.234;19.292;2023-04-25T02:08:09;8.80;;;6.40;;
69126;SDS011;56688;50.234;19.292;2023-04-25T02:10:36;9.60;;;6.60;;
69126;SDS011;56688;50.234;19.292;2023-04-25T02:13:13;8.70;;;6.90;;
69126;SDS011;56688;50.234;19.292;2023-04-25T02:15:49;10.20;;;7.10;;
69126;SDS011;56688;50.234;19.292;2023-04-25T02:18:18;9.90;;;6.60;;
69126;SDS011;56688;50.234;19.292;2023-04-25T02:20:45;8.60;;;6.20;;
69126;SDS011;56688;50.234;19.292;2023-04-25T02:23:12;10.90;;;5.90;;
69126;SDS011;56688;50.234;19.292;2023-04-25T02:25:41;9.20;;;5.80;;
69126;SDS011;56688;50.234;19.292;2023-04-25T02:28:08;7.30;;;5.80;;
69126;SDS011;56688;50.234;19.292;2023-04-25T02:30:36;7.40;;;5.70;;
69126;SDS011;56688;50.234;19.292;2023-04-25T02:33:04;8.50;;;6.10;;
69126;SDS011;56688;50.234;19.292;2023-04-25T02:35:31;11.40;;;5.90;;
69126;SDS011;56688;50.234;19.292;2023-04-25T02:37:58;10.40;;;6.10;;
69126;SDS011;56688;50.234;19.292;2023-04-25T02:40:25;9.00;;;6.60;;
69126;SDS011;56688;50.234;19.292;2023-04-25T02:42:53;8.40;;;5.70;;
69126;SDS011;56688;50.234;19.292;2023-04-25T02:45:20;10.10;;;6.00;;
69126;SDS011;56688;50.234;19.292;2023-04-25T02:47:47;12.70;;;7.00;;
69126;SDS011;56688;50.234;19.292;2023-04-25T02:50:14;8.30;;;6.90;;
69126;SDS011;56688;50.234;19.292;2023-04-25T02:52:41;9.90;;;6.20;;
69126;SDS011;56688;50.234;19.292;2023-04-25T02:55:12;8.30;;;5.80;;
69126;SDS011;56688;50.234;19.292;2023-04-25T02:57:40;6.50;;;5.60;;
69126;SDS011;56688;50.234;19.292;2023-04-25T03:00:08;7.00;;;5.80;;
69126;SDS011;56688;50.234;19.292;2023-04-25T03:02:38;8.30;;;6.00;;
69126;SDS011;56688;50.234;19.292;2023-04-25T03:05:05;11.20;;;7.70;;
69126;SDS011;56688;50.234;19.292;2023-04-25T03:07:34;8.10;;;6.40;;
69126;SDS011;56688;50.234;19.292;2023-04-25T03:10:01;9.60;;;7.40;;
69126;SDS011;56688;50.234;19.292;2023-04-25T03:12:29;13.80;;;8.20;;
69126;SDS011;56688;50.234;19.292;2023-04-25T03:14:56;9.30;;;6.40;;
69126;SDS011;56688;50.234;19.292;2023-04-25T03:17:23;8.00;;;5.90;;
69126;SDS011;56688;50.234;19.292;2023-04-25T03:19:49;11.90;;;6.70;;
69126;SDS011;56688;50.234;19.292;2023-04-25T03:22:16;7.60;;;5.60;;
69126;SDS011;56688;50.234;19.292;2023-04-25T03:24:43;8.00;;;5.80;;
69126;SDS011;56688;50.234;19.292;2023-04-25T03:27:10;7.70;;;5.40;;
69126;SDS011;56688;50.234;19.292;2023-04-25T03:29:37;7.90;;;5.00;;
69126;SDS011;56688;50.234;19.292;2023-04-25T03:32:05;7.10;;;5.70;;
69126;SDS011;56688;50.234;19.292;2023-04-25T03:34:32;7.90;;;5.30;;
69126;SDS011;56688;50.234;19.292;2023-04-25T03:36:59;8.20;;;5.90;;
69126;SDS011;56688;50.234;19.292;2023-04-25T03:39:27;8.20;;;6.20;;
69126;SDS011;56688;50.234;19.292;2023-04-25T03:41:55;10.30;;;6.40;;
69126;SDS011;56688;50.234;19.292;2023-04-25T03:44:22;8.50;;;6.40;;
69126;SDS011;56688;50.234;19.292;2023-04-25T03:46:50;11.80;;;6.80;;
69126;SDS011;56688;50.234;19.292;2023-04-25T03:49:17;10.80;;;6.70;;
69126;SDS011;56688;50.234;19.292;2023-04-25T03:52:01;11.20;;;6.80;;
69126;SDS011;56688;50.234;19.292;2023-04-25T03:54:33;10.60;;;5.80;;
69126;SDS011;56688;50.234;19.292;2023-04-25T03:57:07;9.20;;;6.10;;
69126;SDS011;56688;50.234;19.292;2023-04-25T03:59:36;9.50;;;6.40;;
69126;SDS011;56688;50.234;19.292;2023-04-25T04:02:04;9.80;;;6.70;;
69126;SDS011;56688;50.234;19.292;2023-04-25T04:04:33;10.00;;;7.70;;
69126;SDS011;56688;50.234;19.292;2023-04-25T04:07:00;9.90;;;7.10;;
69126;SDS011;56688;50.234;19.292;2023-04-25T04:09:30;7.50;;;6.30;;
69126;SDS011;56688;50.234;19.292;2023-04-25T04:11:59;10.20;;;7.20;;
69126;SDS011;56688;50.234;19.292;2023-04-25T04:14:29;10.90;;;7.20;;
69126;SDS011;56688;50.234;19.292;2023-04-25T04:16:56;11.40;;;6.80;;
69126;SDS011;56688;50.234;19.292;2023-04-25T04:19:24;8.20;;;5.90;;
69126;SDS011;56688;50.234;19.292;2023-04-25T04:22:00;8.90;;;6.70;;
69126;SDS011;56688;50.234;19.292;2023-04-25T04:24:27;9.60;;;6.30;;
69126;SDS011;56688;50.234;19.292;2023-04-25T04:27:00;8.90;;;6.70;;
69126;SDS011;56688;50.234;19.292;2023-04-25T04:29:32;11.80;;;6.70;;
69126;SDS011;56688;50.234;19.292;2023-04-25T04:32:05;8.00;;;6.50;;
69126;SDS011;56688;50.234;19.292;2023-04-25T04:34:35;7.00;;;5.60;;
69126;SDS011;56688;50.234;19.292;2023-04-25T04:37:03;7.50;;;4.90;;
69126;SDS011;56688;50.234;19.292;2023-04-25T04:39:30;8.90;;;4.90;;
69126;SDS011;56688;50.234;19.292;2023-04-25T04:42:06;6.80;;;4.00;;
69126;SDS011;56688;50.234;19.292;2023-04-25T04:44:48;6.80;;;4.30;;
69126;SDS011;56688;50.234;19.292;2023-04-25T04:47:25;5.50;;;4.20;;
69126;SDS011;56688;50.234;19.292;2023-04-25T04:50:02;5.50;;;4.20;;
69126;SDS011;56688;50.234;19.292;2023-04-25T04:52:42;6.30;;;4.20;;
69126;SDS011;56688;50.234;19.292;2023-04-25T04:55:27;7.50;;;4.20;;
69126;SDS011;56688;50.234;19.292;2023-04-25T04:58:09;6.60;;;4.70;;
69126;SDS011;56688;50.234;19.292;2023-04-25T05:00:46;6.90;;;4.40;;
69126;SDS011;56688;50.234;19.292;2023-04-25T05:03:33;8.50;;;4.70;;
69126;SDS011;56688;50.234;19.292;2023-04-25T05:06:06;5.80;;;4.20;;
69126;SDS011;56688;50.234;19.292;2023-04-25T05:08:45;8.60;;;4.80;;
69126;SDS011;56688;50.234;19.292;2023-04-25T05:11:25;8.80;;;5.00;;
69126;SDS011;56688;50.234;19.292;2023-04-25T05:14:07;9.00;;;4.90;;
69126;SDS011;56688;50.234;19.292;2023-04-25T05:16:43;9.80;;;4.70;;
69126;SDS011;56688;50.234;19.292;2023-04-25T05:19:19;11.40;;;5.00;;
69126;SDS011;56688;50.234;19.292;2023-04-25T05:22:01;10.20;;;4.80;;
69126;SDS011;56688;50.234;19.292;2023-04-25T05:24:38;9.60;;;4.80;;
69126;SDS011;56688;50.234;19.292;2023-04-25T05:27:16;7.20;;;4.40;;
69126;SDS011;56688;50.234;19.292;2023-04-25T05:29:58;8.50;;;5.00;;
69126;SDS011;56688;50.234;19.292;2023-04-25T05:32:31;15.40;;;5.40;;
69126;SDS011;56688;50.234;19.292;2023-04-25T05:34:59;8.30;;;4.70;;
69126;SDS011;56688;50.234;19.292;2023-04-25T05:37:32;6.70;;;4.30;;
69126;SDS011;56688;50.234;19.292;2023-04-25T05:40:08;6.20;;;4.30;;
69126;SDS011;56688;50.234;19.292;2023-04-25T05:42:50;8.40;;;4.20;;
69126;SDS011;56688;50.234;19.292;2023-04-25T05:45:20;7.20;;;4.30;;
69126;SDS011;56688;50.234;19.292;2023-04-25T05:47:55;6.60;;;3.50;;
69126;SDS011;56688;50.234;19.292;2023-04-25T05:50:37;5.40;;;3.20;;
69126;SDS011;56688;50.234;19.292;2023-04-25T05:53:23;4.70;;;3.50;;
69126;SDS011;56688;50.234;19.292;2023-04-25T05:55:58;5.20;;;3.50;;
69126;SDS011;56688;50.234;19.292;2023-04-25T05:58:26;3.90;;;3.10;;
69126;SDS011;56688;50.234;19.292;2023-04-25T06:00:53;6.60;;;3.40;;
69126;SDS011;56688;50.234;19.292;2023-04-25T06:03:21;4.30;;;3.10;;
69126;SDS011;56688;50.234;19.292;2023-04-25T06:05:50;6.00;;;2.90;;
69126;SDS011;56688;50.234;19.292;2023-04-25T06:08:18;4.90;;;3.10;;
69126;SDS011;56688;50.234;19.292;2023-04-25T06:10:45;4.70;;;3.10;;
69126;SDS011;56688;50.234;19.292;2023-04-25T06:13:13;4.60;;;3.30;;
69126;SDS011;56688;50.234;19.292;2023-04-25T06:15:39;5.40;;;3.30;;
69126;SDS011;56688;50.234;19.292;2023-04-25T06:18:07;3.70;;;3.10;;
69126;SDS011;56688;50.234;19.292;2023-04-25T06:20:33;6.30;;;2.90;;
69126;SDS011;56688;50.234;19.292;2023-04-25T06:23:00;7.10;;;3.10;;
69126;SDS011;56688;50.234;19.292;2023-04-25T06:25:42;5.20;;;3.20;;
69126;SDS011;56688;50.234;19.292;2023-04-25T06:28:08;4.80;;;3.20;;
69126;SDS011;56688;50.234;19.292;2023-04-25T06:30:36;4.80;;;3.50;;
69126;SDS011;56688;50.234;19.292;2023-04-25T06:33:06;4.80;;;3.00;;
69126;SDS011;56688;50.234;19.292;2023-04-25T06:35:35;5.30;;;3.60;;
69126;SDS011;56688;50.234;19.292;2023-04-25T06:38:03;5.70;;;4.20;;
69126;SDS011;56688;50.234;19.292;2023-04-25T06:40:30;6.80;;;4.20;;
69126;SDS011;56688;50.234;19.292;2023-04-25T06:42:57;6.60;;;5.10;;
69126;SDS011;56688;50.234;19.292;2023-04-25T06:45:40;7.30;;;5.00;;
69126;SDS011;56688;50.234;19.292;2023-04-25T06:48:07;7.50;;;4.60;;
69126;SDS011;56688;50.234;19.292;2023-04-25T06:50:34;9.50;;;5.30;;
69126;SDS011;56688;50.234;19.292;2023-04-25T06:53:01;6.30;;;5.10;;
69126;SDS011;56688;50.234;19.292;2023-04-25T06:55:28;7.30;;;5.10;;
69126;SDS011;56688;50.234;19.292;2023-04-25T06:58:06;7.00;;;5.00;;
69126;SDS011;56688;50.234;19.292;2023-04-25T07:03:19;5.70;;;4.40;;
69126;SDS011;56688;50.234;19.292;2023-04-25T07:05:47;6.00;;;4.40;;
69126;SDS011;56688;50.234;19.292;2023-04-25T07:08:14;6.90;;;4.50;;
69126;SDS011;56688;50.234;19.292;2023-04-25T07:10:41;8.40;;;5.00;;
69126;SDS011;56688;50.234;19.292;2023-04-25T07:13:08;7.60;;;5.40;;
69126;SDS011;56688;50.234;19.292;2023-04-25T07:15:35;8.90;;;5.20;;
69126;SDS011;56688;50.234;19.292;2023-04-25T07:18:02;7.30;;;5.40;;
69126;SDS011;56688;50.234;19.292;2023-04-25T07:20:29;7.40;;;4.60;;
69126;SDS011;56688;50.234;19.292;2023-04-25T07:22:57;8.50;;;4.90;;
69126;SDS011;56688;50.234;19.292;2023-04-25T07:25:24;8.30;;;4.80;;
69126;SDS011;56688;50.234;19.292;2023-04-25T07:27:52;7.50;;;4.80;;
69126;SDS011;56688;50.234;19.292;2023-04-25T07:30:20;6.20;;;4.40;;
69126;SDS011;56688;50.234;19.292;2023-04-25T07:32:47;8.30;;;5.00;;
69126;SDS011;56688;50.234;19.292;2023-04-25T07:35:14;7.30;;;5.10;;
69126;SDS011;56688;50.234;19.292;2023-04-25T07:37:41;6.30;;;4.90;;
69126;SDS011;56688;50.234;19.292;2023-04-25T07:40:12;7.30;;;5.30;;
69126;SDS011;56688;50.234;19.292;2023-04-25T07:42:43;9.30;;;4.90;;
69126;SDS011;56688;50.234;19.292;2023-04-25T07:45:12;5.40;;;3.80;;
69126;SDS011;56688;50.234;19.292;2023-04-25T07:47:39;6.20;;;4.30;;
69126;SDS011;56688;50.234;19.292;2023-04-25T07:50:07;5.10;;;4.00;;
69126;SDS011;56688;50.234;19.292;2023-04-25T07:52:35;7.30;;;4.10;;
69126;SDS011;56688;50.234;19.292;2023-04-25T07:55:11;7.00;;;3.30;;
69126;SDS011;56688;50.234;19.292;2023-04-25T07:57:51;5.30;;;3.10;;
69126;SDS011;56688;50.234;19.292;2023-04-25T08:00:19;4.80;;;2.90;;
69126;SDS011;56688;50.234;19.292;2023-04-25T08:02:47;5.30;;;3.00;;
69126;SDS011;56688;50.234;19.292;2023-04-25T08:05:14;5.10;;;2.90;;
69126;SDS011;56688;50.234;19.292;2023-04-25T08:07:50;6.80;;;3.10;;
69126;SDS011;56688;50.234;19.292;2023-04-25T08:10:17;6.90;;;3.10;;
69126;SDS011;56688;50.234;19.292;2023-04-25T08:12:46;5.90;;;3.50;;
69126;SDS011;56688;50.234;19.292;2023-04-25T08:15:13;5.20;;;3.60;;
69126;SDS011;56688;50.234;19.292;2023-04-25T08:17:41;4.70;;;3.80;;
69126;SDS011;56688;50.234;19.292;2023-04-25T08:20:09;5.90;;;3.80;;
69126;SDS011;56688;50.234;19.292;2023-04-25T08:22:37;7.20;;;4.00;;
69126;SDS011;56688;50.234;19.292;2023-04-25T08:25:24;6.30;;;3.30;;
69126;SDS011;56688;50.234;19.292;2023-04-25T08:27:51;4.10;;;3.10;;
69126;SDS011;56688;50.234;19.292;2023-04-25T08:30:19;5.60;;;3.80;;
69126;SDS011;56688;50.234;19.292;2023-04-25T08:32:47;4.70;;;3.50;;
69126;SDS011;56688;50.234;19.292;2023-04-25T08:35:23;5.00;;;3.90;;
69126;SDS011;56688;50.234;19.292;2023-04-25T08:37:50;5.60;;;3.60;;
69126;SDS011;56688;50.234;19.292;2023-04-25T08:40:18;5.90;;;3.80;;
69126;SDS011;56688;50.234;19.292;2023-04-25T08:42:56;3.90;;;3.20;;
69126;SDS011;56688;50.234;19.292;2023-04-25T08:45:26;4.30;;;3.20;;
69126;SDS011;56688;50.234;19.292;2023-04-25T08:47:54;4.70;;;3.70;;
69126;SDS011;56688;50.234;19.292;2023-04-25T08:50:23;5.90;;;3.80;;
69126;SDS011;56688;50.234;19.292;2023-04-25T08:52:53;3.60;;;3.10;;
69126;SDS011;56688;50.234;19.292;2023-04-25T08:55:22;8.00;;;3.40;;
69126;SDS011;56688;50.234;19.292;2023-04-25T08:57:53;4.40;;;3.30;;
69126;SDS011;56688;50.234;19.292;2023-04-25T09:00:21;4.40;;;3.40;;
69126;SDS011;56688;50.234;19.292;2023-04-25T09:02:49;6.10;;;3.10;;
69126;SDS011;56688;50.234;19.292;2023-04-25T09:05:16;4.30;;;2.90;;
69126;SDS011;56688;50.234;19.292;2023-04-25T09:07:50;8.00;;;2.90;;
69126;SDS011;56688;50.234;19.292;2023-04-25T09:10:17;6.30;;;2.90;;
69126;SDS011;56688;50.234;19.292;2023-04-25T09:12:44;3.60;;;2.70;;
69126;SDS011;56688;50.234;19.292;2023-04-25T09:15:12;4.00;;;2.60;;
69126;SDS011;56688;50.234;19.292;2023-04-25T09:18:02;3.30;;;2.40;;
69126;SDS011;56688;50.234;19.292;2023-04-25T09:20:34;4.00;;;2.80;;
69126;SDS011;56688;50.234;19.292;2023-04-25T09:23:26;4.20;;;2.70;;
69126;SDS011;56688;50.234;19.292;2023-04-25T09:25:53;4.30;;;3.10;;
69126;SDS011;56688;50.234;19.292;2023-04-25T09:28:24;4.60;;;3.20;;
69126;SDS011;56688;50.234;19.292;2023-04-25T09:30:56;4.00;;;2.70;;
69126;SDS011;56688;50.234;19.292;2023-04-25T09:33:36;5.00;;;2.60;;
69126;SDS011;56688;50.234;19.292;2023-04-25T09:36:06;3.50;;;2.40;;
69126;SDS011;56688;50.234;19.292;2023-04-25T09:38:44;11.00;;;2.80;;
69126;SDS011;56688;50.234;19.292;2023-04-25T09:41:27;4.30;;;2.70;;
69126;SDS011;56688;50.234;19.292;2023-04-25T09:43:58;6.00;;;3.10;;
69126;SDS011;56688;50.234;19.292;2023-04-25T09:46:33;4.80;;;2.80;;
69126;SDS011;56688;50.234;19.292;2023-04-25T09:49:06;3.70;;;3.20;;
69126;SDS011;56688;50.234;19.292;2023-04-25T09:51:53;5.30;;;2.90;;
69126;SDS011;56688;50.234;19.292;2023-04-25T09:54:22;5.30;;;2.50;;
69126;SDS011;56688;50.234;19.292;2023-04-25T09:57:02;3.50;;;2.70;;
69126;SDS011;56688;50.234;19.292;2023-04-25T09:59:39;3.70;;;2.20;;
69126;SDS011;56688;50.234;19.292;2023-04-25T10:02:09;4.10;;;2.30;;
69126;SDS011;56688;50.234;19.292;2023-04-25T10:04:39;4.30;;;2.40;;
69126;SDS011;56688;50.234;19.292;2023-04-25T10:07:16;4.60;;;2.50;;
69126;SDS011;56688;50.234;19.292;2023-04-25T10:09:44;2.40;;;2.00;;
69126;SDS011;56688;50.234;19.292;2023-04-25T10:12:16;2.80;;;2.10;;
69126;SDS011;56688;50.234;19.292;2023-04-25T10:14:44;2.50;;;1.90;;
69126;SDS011;56688;50.234;19.292;2023-04-25T10:17:12;3.70;;;2.00;;
69126;SDS011;56688;50.234;19.292;2023-04-25T10:19:39;3.20;;;1.90;;
69126;SDS011;56688;50.234;19.292;2023-04-25T10:24:37;3.30;;;1.90;;
69126;SDS011;56688;50.234;19.292;2023-04-25T10:27:05;2.60;;;2.00;;
69126;SDS011;56688;50.234;19.292;2023-04-25T10:29:34;3.20;;;2.00;;
69126;SDS011;56688;50.234;19.292;2023-04-25T10:32:01;3.50;;;1.90;;
69126;SDS011;56688;50.234;19.292;2023-04-25T10:37:15;2.10;;;1.80;;
69126;SDS011;56688;50.234;19.292;2023-04-25T10:39:42;4.00;;;2.20;;
69126;SDS011;56688;50.234;19.292;2023-04-25T10:42:09;3.80;;;2.20;;
69126;SDS011;56688;50.234;19.292;2023-04-25T10:44:37;4.40;;;2.50;;
69126;SDS011;56688;50.234;19.292;2023-04-25T10:47:06;6.30;;;2.30;;
69126;SDS011;56688;50.234;19.292;2023-04-25T10:49:37;4.20;;;2.60;;
69126;SDS011;56688;50.234;19.292;2023-04-25T10:52:16;3.20;;;2.10;;
69126;SDS011;56688;50.234;19.292;2023-04-25T10:54:49;3.50;;;2.10;;
69126;SDS011;56688;50.234;19.292;2023-04-25T11:00:11;4.10;;;2.20;;
69126;SDS011;56688;50.234;19.292;2023-04-25T11:05:20;3.20;;;2.20;;
69126;SDS011;56688;50.234;19.292;2023-04-25T11:07:50;4.90;;;2.20;;
69126;SDS011;56688;50.234;19.292;2023-04-25T11:10:30;4.20;;;1.80;;
69126;SDS011;56688;50.234;19.292;2023-04-25T11:12:58;2.80;;;1.80;;
69126;SDS011;56688;50.234;19.292;2023-04-25T11:15:26;2.80;;;1.90;;
69126;SDS011;56688;50.234;19.292;2023-04-25T11:17:53;4.30;;;2.10;;
69126;SDS011;56688;50.234;19.292;2023-04-25T11:20:22;4.90;;;2.20;;
69126;SDS011;56688;50.234;19.292;2023-04-25T11:22:52;4.10;;;2.40;;
69126;SDS011;56688;50.234;19.292;2023-04-25T11:25:19;2.90;;;2.10;;
69126;SDS011;56688;50.234;19.292;2023-04-25T11:27:50;3.00;;;2.10;;
69126;SDS011;56688;50.234;19.292;2023-04-25T11:30:18;3.80;;;2.40;;
69126;SDS011;56688;50.234;19.292;2023-04-25T11:32:47;3.40;;;2.10;;
69126;SDS011;56688;50.234;19.292;2023-04-25T11:35:14;3.40;;;2.30;;
69126;SDS011;56688;50.234;19.292;2023-04-25T11:37:42;2.60;;;1.80;;
69126;SDS011;56688;50.234;19.292;2023-04-25T11:40:10;5.90;;;2.00;;
69126;SDS011;56688;50.234;19.292;2023-04-25T11:42:42;3.70;;;1.90;;
69126;SDS011;56688;50.234;19.292;2023-04-25T11:45:11;3.40;;;2.00;;
69126;SDS011;56688;50.234;19.292;2023-04-25T11:47:39;4.00;;;1.50;;
69126;SDS011;56688;50.234;19.292;2023-04-25T11:50:07;3.20;;;1.70;;
69126;SDS011;56688;50.234;19.292;2023-04-25T11:52:36;4.30;;;1.80;;
69126;SDS011;56688;50.234;19.292;2023-04-25T11:55:13;4.10;;;2.20;;
69126;SDS011;56688;50.234;19.292;2023-04-25T11:57:41;3.40;;;1.90;;
69126;SDS011;56688;50.234;19.292;2023-04-25T12:00:10;4.30;;;2.00;;
69126;SDS011;56688;50.234;19.292;2023-04-25T12:02:44;2.20;;;1.90;;
69126;SDS011;56688;50.234;19.292;2023-04-25T12:05:13;3.80;;;1.90;;
69126;SDS011;56688;50.234;19.292;2023-04-25T12:07:57;3.60;;;2.40;;
69126;SDS011;56688;50.234;19.292;2023-04-25T12:10:24;5.90;;;2.80;;
69126;SDS011;56688;50.234;19.292;2023-04-25T12:12:52;5.80;;;2.80;;
69126;SDS011;56688;50.234;19.292;2023-04-25T12:15:26;9.80;;;2.30;;
69126;SDS011;56688;50.234;19.292;2023-04-25T12:17:53;4.30;;;2.20;;
69126;SDS011;56688;50.234;19.292;2023-04-25T12:20:24;3.70;;;2.40;;
69126;SDS011;56688;50.234;19.292;2023-04-25T12:22:52;4.20;;;2.40;;
69126;SDS011;56688;50.234;19.292;2023-04-25T12:33:33;4.10;;;2.20;;
69126;SDS011;56688;50.234;19.292;2023-04-25T12:36:02;4.00;;;2.00;;
69126;SDS011;56688;50.234;19.292;2023-04-25T12:38:36;4.60;;;2.40;;
69126;SDS011;56688;50.234;19.292;2023-04-25T12:41:04;5.80;;;2.90;;
69126;SDS011;56688;50.234;19.292;2023-04-25T12:43:32;6.80;;;3.50;;
69126;SDS011;56688;50.234;19.292;2023-04-25T12:45:59;6.60;;;3.00;;
69126;SDS011;56688;50.234;19.292;2023-04-25T12:48:26;5.90;;;2.20;;
69126;SDS011;56688;50.234;19.292;2023-04-25T12:50:53;5.00;;;2.40;;
69126;SDS011;56688;50.234;19.292;2023-04-25T12:53:21;6.70;;;2.30;;
69126;SDS011;56688;50.234;19.292;2023-04-25T12:55:50;2.10;;;1.50;;
69126;SDS011;56688;50.234;19.292;2023-04-25T12:58:18;3.80;;;2.00;;
69126;SDS011;56688;50.234;19.292;2023-04-25T13:00:46;3.00;;;1.90;;
69126;SDS011;56688;50.234;19.292;2023-04-25T13:03:14;5.70;;;1.90;;
69126;SDS011;56688;50.234;19.292;2023-04-25T13:05:41;4.50;;;2.00;;
69126;SDS011;56688;50.234;19.292;2023-04-25T13:08:08;4.60;;;1.80;;
69126;SDS011;56688;50.234;19.292;2023-04-25T13:10:35;6.80;;;2.00;;
69126;SDS011;56688;50.234;19.292;2023-04-25T13:13:04;4.30;;;1.80;;
69126;SDS011;56688;50.234;19.292;2023-04-25T13:15:31;5.30;;;1.50;;
69126;SDS011;56688;50.234;19.292;2023-04-25T13:17:58;4.00;;;2.10;;
69126;SDS011;56688;50.234;19.292;2023-04-25T13:20:25;3.60;;;1.90;;
69126;SDS011;56688;50.234;19.292;2023-04-25T13:22:52;2.60;;;1.70;;
69126;SDS011;56688;50.234;19.292;2023-04-25T13:25:19;4.60;;;2.00;;
69126;SDS011;56688;50.234;19.292;2023-04-25T13:27:46;4.80;;;2.20;;
69126;SDS011;56688;50.234;19.292;2023-04-25T13:30:13;3.50;;;2.00;;
69126;SDS011;56688;50.234;19.292;2023-04-25T13:32:40;4.80;;;2.10;;
69126;SDS011;56688;50.234;19.292;2023-04-25T13:35:09;5.50;;;2.60;;
69126;SDS011;56688;50.234;19.292;2023-04-25T13:37:37;4.90;;;2.20;;
69126;SDS011;56688;50.234;19.292;2023-04-25T13:40:06;5.20;;;2.20;;
69126;SDS011;56688;50.234;19.292;2023-04-25T13:42:36;4.90;;;2.80;;
69126;SDS011;56688;50.234;19.292;2023-04-25T13:45:05;3.80;;;2.10;;
69126;SDS011;56688;50.234;19.292;2023-04-25T13:47:33;6.60;;;1.90;;
69126;SDS011;56688;50.234;19.292;2023-04-25T13:50:00;5.80;;;2.40;;
69126;SDS011;56688;50.234;19.292;2023-04-25T13:52:30;4.70;;;2.00;;
69126;SDS011;56688;50.234;19.292;2023-04-25T13:54:57;5.70;;;2.00;;
69126;SDS011;56688;50.234;19.292;2023-04-25T13:57:24;4.20;;;2.20;;
69126;SDS011;56688;50.234;19.292;2023-04-25T13:59:51;4.40;;;2.20;;
69126;SDS011;56688;50.234;19.292;2023-04-25T14:02:19;3.90;;;2.20;;
69126;SDS011;56688;50.234;19.292;2023-04-25T14:04:46;3.30;;;2.00;;
69126;SDS011;56688;50.234;19.292;2023-04-25T14:07:13;4.40;;;2.30;;
69126;SDS011;56688;50.234;19.292;2023-04-25T14:09:43;6.90;;;2.90;;
69126;SDS011;56688;50.234;19.292;2023-04-25T14:12:10;4.90;;;2.90;;
69126;SDS011;56688;50.234;19.292;2023-04-25T14:14:37;4.90;;;2.70;;
69126;SDS011;56688;50.234;19.292;2023-04-25T14:17:04;6.00;;;2.80;;
69126;SDS011;56688;50.234;19.292;2023-04-25T14:19:31;4.90;;;3.30;;
69126;SDS011;56688;50.234;19.292;2023-04-25T14:21:59;5.20;;;2.80;;
69126;SDS011;56688;50.234;19.292;2023-04-25T14:24:26;8.50;;;2.50;;
69126;SDS011;56688;50.234;19.292;2023-04-25T14:26:53;5.40;;;3.10;;
69126;SDS011;56688;50.234;19.292;2023-04-25T14:29:20;6.00;;;3.20;;
69126;SDS011;56688;50.234;19.292;2023-04-25T14:31:46;8.10;;;2.90;;
69126;SDS011;56688;50.234;19.292;2023-04-25T14:34:14;6.20;;;2.90;;
69126;SDS011;56688;50.234;19.292;2023-04-25T14:36:41;5.70;;;2.60;;
69126;SDS011;56688;50.234;19.292;2023-04-25T14:39:08;3.70;;;2.50;;
69126;SDS011;56688;50.234;19.292;2023-04-25T14:41:36;7.40;;;2.50;;
69126;SDS011;56688;50.234;19.292;2023-04-25T14:44:04;5.10;;;2.50;;
69126;SDS011;56688;50.234;19.292;2023-04-25T14:46:30;7.80;;;3.10;;
69126;SDS011;56688;50.234;19.292;2023-04-25T14:48:57;4.40;;;3.50;;
69126;SDS011;56688;50.234;19.292;2023-04-25T14:51:24;6.00;;;3.40;;
69126;SDS011;56688;50.234;19.292;2023-04-25T14:53:52;5.60;;;3.20;;
69126;SDS011;56688;50.234;19.292;2023-04-25T14:56:20;5.50;;;3.20;;
69126;SDS011;56688;50.234;19.292;2023-04-25T14:58:47;5.60;;;3.10;;
69126;SDS011;56688;50.234;19.292;2023-04-25T15:01:14;5.90;;;3.10;;
69126;SDS011;56688;50.234;19.292;2023-04-25T15:03:41;7.10;;;3.10;;
69126;SDS011;56688;50.234;19.292;2023-04-25T15:06:08;8.50;;;3.50;;
69126;SDS011;56688;50.234;19.292;2023-04-25T15:08:35;10.10;;;4.60;;
69126;SDS011;56688;50.234;19.292;2023-04-25T15:11:02;6.20;;;3.70;;